createdAt,value
2018-09-14T00:02:06.359Z,101931.47
2018-09-14T00:05:30.868Z,101932.77
2018-09-14T00:08:55.272Z,101929.19
2018-09-14T00:12:19.665Z,101925.61
2018-09-14T00:15:44.078Z,101919.24
2018-09-14T00:19:08.472Z,101927.56
2018-09-14T00:22:32.861Z,101918.22
2018-09-14T00:25:57.259Z,101921.65
2018-09-14T00:29:21.737Z,101919.16
2018-09-14T00:32:46.168Z,101908.41
2018-09-14T00:36:10.577Z,101906.27
2018-09-14T00:39:35.010Z,101909.16
2018-09-14T00:42:59.444Z,101902.61
2018-09-14T00:46:23.897Z,101904.23
2018-09-14T00:49:48.299Z,101906.15
2018-09-14T00:53:12.725Z,101906.56
2018-09-14T00:56:37.166Z,101906.43
2018-09-14T01:00:01.574Z,101910.38
2018-09-14T01:03:26.083Z,101907.44
2018-09-14T01:06:50.566Z,101911.91
2018-09-14T01:10:14.971Z,101913.08
2018-09-14T01:13:39.395Z,101913.47
2018-09-14T01:17:03.942Z,101909.75
2018-09-14T01:20:28.363Z,101906.52
2018-09-14T01:23:52.784Z,101911.92
2018-09-14T01:27:17.228Z,101912.61
2018-09-14T01:30:41.645Z,101899.09
2018-09-14T01:34:06.162Z,101900.91
2018-09-14T01:37:30.574Z,101903.53
2018-09-14T01:40:55.022Z,101898.82
2018-09-14T01:44:19.414Z,101890.34
2018-09-14T01:47:43.857Z,101886.69
2018-09-14T01:51:08.304Z,101882.89
2018-09-14T01:54:32.717Z,101884.47
2018-09-14T01:57:57.641Z,101887.83
2018-09-14T02:01:22.143Z,101885.36
2018-09-14T02:04:46.600Z,101885.78
2018-09-14T02:08:11.011Z,101886.08
2018-09-14T02:11:35.387Z,101888.14
2018-09-14T02:14:59.825Z,101892.05
2018-09-14T02:18:24.233Z,101891.72
2018-09-14T02:21:48.651Z,101891.72
2018-09-14T02:25:13.253Z,101882.36
2018-09-14T02:28:37.642Z,101886.50
2018-09-14T02:32:02.102Z,101875.47
2018-09-14T02:35:26.514Z,101875.47
2018-09-14T02:38:50.937Z,101868.33
2018-09-14T02:42:15.361Z,101868.33
2018-09-14T02:45:39.804Z,101866.55
2018-09-14T02:49:04.210Z,101864.81
2018-09-14T02:52:28.638Z,101863.86
2018-09-14T02:55:53.107Z,101863.41
2018-09-14T02:59:17.580Z,101870.78
2018-09-14T03:02:41.981Z,101869.12
2018-09-14T03:06:06.518Z,101859.67
2018-09-14T03:09:30.953Z,101860.63
2018-09-14T03:12:55.361Z,101855.84
2018-09-14T03:16:19.756Z,101853.23
2018-09-14T03:19:44.158Z,101849.10
2018-09-14T03:23:08.587Z,101847.92
2018-09-14T03:26:33.012Z,101852.41
2018-09-14T03:29:57.439Z,101851.39
2018-09-14T03:33:21.902Z,101847.00
2018-09-14T03:36:46.322Z,101850.66
2018-09-14T03:40:10.759Z,101851.13
2018-09-14T03:43:41.513Z,101852.17
2018-09-14T03:47:05.978Z,101856.99
2018-09-14T03:50:30.390Z,101861.74
2018-09-14T03:53:54.804Z,101855.41
2018-09-14T03:57:19.462Z,101858.17
2018-09-14T04:00:43.842Z,101861.59
2018-09-14T04:04:08.394Z,101856.89
2018-09-14T04:07:32.836Z,101857.08
2018-09-14T04:10:57.282Z,101860.23
2018-09-14T04:14:21.688Z,101862.22
2018-09-14T04:17:46.124Z,101855.06
2018-09-14T04:21:11.053Z,101858.80
2018-09-14T04:24:35.529Z,101850.69
2018-09-14T04:28:00.194Z,101851.64
2018-09-14T04:31:24.712Z,101848.47
2018-09-14T04:34:49.151Z,101853.39
2018-09-14T04:38:13.566Z,101851.41
2018-09-14T04:41:37.997Z,101848.45
2018-09-14T04:45:03.189Z,101854.05
2018-09-14T04:48:27.643Z,101849.59
2018-09-14T04:51:52.032Z,101854.23
2018-09-14T04:55:16.440Z,101856.91
2018-09-14T04:58:40.931Z,101853.73
2018-09-14T05:02:05.418Z,101859.95
2018-09-14T05:05:29.837Z,101864.48
2018-09-14T05:08:54.309Z,101859.29
2018-09-14T05:12:18.725Z,101855.61
2018-09-14T05:15:43.820Z,101855.72
2018-09-14T05:19:08.284Z,101860.95
2018-09-14T05:22:32.712Z,101862.17
2018-09-14T05:25:57.102Z,101859.80
2018-09-14T05:29:21.529Z,101869.78
2018-09-14T05:32:45.989Z,101864.21
2018-09-14T05:36:10.394Z,101880.19
2018-09-14T05:39:34.801Z,101883.36
2018-09-14T05:42:59.275Z,101871.50
2018-09-14T05:46:23.766Z,101876.89
2018-09-14T05:49:48.157Z,101882.91
2018-09-14T05:53:12.589Z,101890.92
2018-09-14T05:56:37.032Z,101886.84
2018-09-14T06:00:01.528Z,101889.69
2018-09-14T06:03:25.953Z,101896.00
2018-09-14T06:06:50.388Z,101895.06
2018-09-14T06:10:14.877Z,101897.77
2018-09-14T06:13:39.511Z,101901.51
2018-09-14T06:17:03.961Z,101903.53
2018-09-14T06:20:29.332Z,101905.53
2018-09-14T06:23:53.836Z,101911.80
2018-09-14T06:27:18.337Z,101904.02
2018-09-14T06:30:42.821Z,101899.11
2018-09-14T06:34:07.288Z,101903.83
2018-09-14T06:37:31.687Z,101897.88
2018-09-14T06:40:56.133Z,101891.29
2018-09-14T06:44:20.635Z,101896.56
2018-09-14T06:47:45.116Z,101892.59
2018-09-14T06:51:09.611Z,101894.95
2018-09-14T06:54:34.088Z,101899.25
2018-09-14T06:57:58.640Z,101890.71
2018-09-14T07:01:23.101Z,101891.32
2018-09-14T07:04:47.572Z,101891.27
2018-09-14T07:08:11.967Z,101886.65
2018-09-14T07:11:36.457Z,101891.43
2018-09-14T07:15:00.903Z,101892.03
2018-09-14T07:18:25.351Z,101896.59
2018-09-14T07:21:50.813Z,101895.03
2018-09-14T07:25:15.286Z,101908.11
2018-09-14T07:28:39.736Z,101907.32
2018-09-14T07:32:04.129Z,101908.19
2018-09-14T07:35:28.612Z,101911.56
2018-09-14T07:38:53.075Z,101913.97
2018-09-14T07:42:17.567Z,101918.80
2018-09-14T07:45:42.006Z,101921.39
2018-09-14T07:49:06.515Z,101913.27
2018-09-14T07:52:30.984Z,101911.97
2018-09-14T07:55:55.462Z,101915.55
2018-09-14T07:59:19.957Z,101914.30
2018-09-14T08:02:44.492Z,101916.83
2018-09-14T08:06:08.968Z,101915.13
2018-09-14T08:09:33.403Z,101919.22
2018-09-14T08:12:57.849Z,101918.99
2018-09-14T08:16:22.290Z,101922.86
2018-09-14T08:19:46.719Z,101922.55
2018-09-14T08:23:11.178Z,101918.84
2018-09-14T08:26:35.702Z,101917.86
2018-09-14T08:30:00.292Z,101915.09
2018-09-14T08:33:24.749Z,101919.30
2018-09-14T08:36:49.254Z,101925.81
2018-09-14T08:40:13.705Z,101926.56
2018-09-14T08:43:38.134Z,101929.17
2018-09-14T08:47:02.561Z,101923.05
2018-09-14T08:50:26.985Z,101922.27
2018-09-14T08:53:51.448Z,101922.31
2018-09-14T08:57:15.866Z,101924.02
2018-09-14T09:00:40.319Z,101929.59
2018-09-14T09:04:04.769Z,101927.09
2018-09-14T09:07:29.198Z,101930.27
2018-09-14T09:10:53.640Z,101935.05
2018-09-14T09:14:18.163Z,101929.74
2018-09-14T09:17:49.244Z,101933.45
2018-09-14T09:21:13.685Z,101924.90
2018-09-14T09:24:38.090Z,101924.37
2018-09-14T09:28:02.503Z,101930.56
2018-09-14T09:31:26.965Z,101930.34
2018-09-14T09:34:51.459Z,101928.98
2018-09-14T09:38:15.962Z,101924.61
2018-09-14T09:41:41.190Z,101922.17
2018-09-14T09:45:05.772Z,101919.11
2018-09-14T09:48:30.260Z,101919.38
2018-09-14T09:51:54.812Z,101919.98
2018-09-14T09:55:19.276Z,101918.14
2018-09-14T09:58:43.783Z,101918.13
2018-09-14T10:02:33.793Z,101905.93
2018-09-14T10:06:03.322Z,101912.80
2018-09-14T10:09:27.819Z,101911.47
2018-09-14T10:12:52.256Z,101908.22
2018-09-14T10:16:16.731Z,101906.42
2018-09-14T10:19:41.221Z,101904.05
2018-09-14T10:23:05.704Z,101904.50
2018-09-14T10:26:30.140Z,101900.41
2018-09-14T10:29:54.545Z,101891.95
2018-09-14T10:33:18.999Z,101891.46
2018-09-14T10:36:43.409Z,101887.03
2018-09-14T10:40:07.857Z,101880.83
2018-09-14T10:43:32.308Z,101872.91
2018-09-14T10:46:56.710Z,101873.17
2018-09-14T10:50:21.279Z,101877.97
2018-09-14T10:53:45.696Z,101868.61
2018-09-14T10:57:10.203Z,101873.55
2018-09-14T11:00:35.020Z,101861.23
2018-09-14T11:03:59.428Z,101858.06
2018-09-14T11:07:23.844Z,101857.80
2018-09-14T11:10:48.274Z,101858.19
2018-09-14T11:14:13.050Z,101853.39
2018-09-14T11:17:37.476Z,101848.12
2018-09-14T11:21:01.889Z,101839.67
2018-09-14T11:24:26.338Z,101834.69
2018-09-14T11:27:50.772Z,101840.80
2018-09-14T11:31:15.222Z,101831.77
2018-09-14T11:34:39.682Z,101826.61
2018-09-14T11:38:04.231Z,101828.39
2018-09-14T11:41:28.612Z,101809.89
2018-09-14T11:44:53.093Z,101812.68
2018-09-14T11:48:17.523Z,101809.24
2018-09-14T11:51:41.934Z,101804.80
2018-09-14T11:55:06.389Z,101798.96
2018-09-14T11:58:30.957Z,101793.16
2018-09-14T12:01:55.392Z,101799.91
2018-09-14T12:05:19.785Z,101800.69
2018-09-14T12:08:44.239Z,101790.57
2018-09-14T12:12:08.660Z,101790.77
2018-09-14T12:15:33.130Z,101789.55
2018-09-14T12:18:57.601Z,101796.48
2018-09-14T12:22:22.099Z,101793.14
2018-09-14T12:25:46.474Z,101774.17
2018-09-14T12:29:10.897Z,101780.53
2018-09-14T12:32:35.431Z,101790.47
2018-09-14T12:35:59.873Z,101780.41
2018-09-14T12:39:24.339Z,101776.77
2018-09-14T12:42:48.781Z,101778.06
2018-09-14T12:46:13.238Z,101770.59
2018-09-14T12:49:37.728Z,101762.50
2018-09-14T12:53:02.146Z,101761.97
2018-09-14T12:56:26.589Z,101767.45
2018-09-14T12:59:51.024Z,101773.25
2018-09-14T13:03:15.462Z,101756.80
2018-09-14T13:06:39.939Z,101768.56
2018-09-14T13:10:04.454Z,101751.77
2018-09-14T13:13:28.905Z,101747.20
2018-09-14T13:16:53.483Z,101744.58
2018-09-14T13:20:17.933Z,101747.94
2018-09-14T13:23:42.432Z,101743.97
2018-09-14T13:27:06.889Z,101737.83
2018-09-14T13:30:31.837Z,101741.38
2018-09-14T13:33:56.348Z,101734.92
2018-09-14T13:37:21.109Z,101742.37
2018-09-14T13:40:45.517Z,101734.57
2018-09-14T13:44:09.891Z,101726.70
2018-09-14T13:47:34.753Z,101726.23
2018-09-14T13:50:59.203Z,101725.00
2018-09-14T13:54:23.638Z,101729.45
2018-09-14T13:57:48.923Z,101728.37
2018-09-14T14:01:13.404Z,101725.49
2018-09-14T14:04:37.880Z,101720.32
2018-09-14T14:08:02.299Z,101729.15
2018-09-14T14:11:26.735Z,101719.66
2018-09-14T14:14:51.164Z,101720.05
2018-09-14T14:22:27.492Z,101725.73
2018-09-14T14:25:51.920Z,101718.96
2018-09-14T14:29:16.348Z,101722.41
2018-09-14T14:32:40.779Z,101720.14
2018-09-14T14:36:05.253Z,101723.15
2018-09-14T14:39:29.685Z,101717.52
2018-09-14T14:42:54.076Z,101717.75
2018-09-14T14:46:18.519Z,101718.67
2018-09-14T14:49:42.944Z,101718.25
2018-09-14T14:53:07.587Z,101716.65
2018-09-14T14:56:32.004Z,101709.17
2018-09-14T14:59:56.501Z,101712.10
2018-09-14T15:03:20.943Z,101717.55
2018-09-14T15:06:45.361Z,101717.50
2018-09-14T15:10:09.794Z,101733.61
2018-09-14T15:13:34.238Z,101721.77
2018-09-14T15:16:58.650Z,101715.14
2018-09-14T15:20:23.081Z,101712.97
2018-09-14T15:23:47.529Z,101716.74
2018-09-14T15:27:11.921Z,101712.84
2018-09-14T15:30:36.478Z,101712.77
2018-09-14T15:34:00.867Z,101715.98
2018-09-14T15:37:25.867Z,101711.77
2018-09-14T15:40:50.380Z,101710.09
2018-09-14T15:44:14.959Z,101709.80
2018-09-14T15:47:39.451Z,101709.94
2018-09-14T15:51:04.024Z,101715.10
2018-09-14T15:54:28.461Z,101710.88
2018-09-14T15:57:53.100Z,101719.19
2018-09-14T16:01:17.585Z,101729.48
2018-09-14T16:04:42.074Z,101724.59
2018-09-14T16:08:06.635Z,101715.17
2018-09-14T16:11:31.037Z,101732.77
2018-09-14T16:14:55.483Z,101728.00
2018-09-14T16:18:19.904Z,101731.41
2018-09-14T16:21:44.365Z,101731.19
2018-09-14T16:25:09.217Z,101721.91
2018-09-14T16:28:33.651Z,101717.33
2018-09-14T16:31:58.098Z,101722.09
2018-09-14T16:35:22.536Z,101727.34
2018-09-14T16:38:46.975Z,101732.12
2018-09-14T16:42:11.421Z,101722.92
2018-09-14T16:45:35.922Z,101723.60
2018-09-14T16:49:00.341Z,101725.36
2018-09-14T16:52:24.809Z,101720.51
2018-09-14T16:55:55.960Z,101724.64
2018-09-14T16:59:20.354Z,101715.34
2018-09-14T17:02:44.807Z,101718.99
2018-09-14T17:06:09.196Z,101718.06
2018-09-14T17:09:33.673Z,101714.20
2018-09-14T17:12:58.094Z,101711.71
2018-09-14T17:16:29.299Z,101714.05
2018-09-14T17:19:53.761Z,101717.11
2018-09-14T17:26:41.943Z,101728.17
2018-09-14T17:30:06.778Z,101735.72
2018-09-14T17:33:31.264Z,101734.93
2018-09-14T17:36:55.714Z,101739.11
2018-09-14T17:40:20.161Z,101734.22
2018-09-14T17:43:44.563Z,101732.00
2018-09-14T17:47:09.184Z,101736.23
2018-09-14T17:50:33.673Z,101736.94
2018-09-14T17:53:58.117Z,101740.50
2018-09-14T17:57:22.676Z,101738.97
2018-09-14T18:00:47.115Z,101741.95
2018-09-14T18:04:11.875Z,101740.54
2018-09-14T18:07:36.386Z,101737.94
2018-09-14T18:11:01.115Z,101741.41
2018-09-14T18:14:27.653Z,101744.87
2018-09-14T18:17:52.191Z,101743.37
2018-09-14T18:21:16.680Z,101748.63
2018-09-14T18:24:41.106Z,101746.03
2018-09-14T18:28:06.550Z,101750.52
2018-09-14T18:31:31.103Z,101749.80
2018-09-14T18:34:56.695Z,101760.52
2018-09-14T18:38:21.209Z,101759.94
2018-09-14T18:41:45.775Z,101768.36
2018-09-14T18:45:10.538Z,101775.54
2018-09-14T18:48:35.085Z,101778.77
2018-09-14T18:51:59.933Z,101770.27
2018-09-14T18:55:24.935Z,101777.20
2018-09-14T18:58:49.872Z,101775.73
2018-09-14T19:02:16.175Z,101771.73
2018-09-14T19:05:41.918Z,101779.36
2018-09-14T19:09:11.929Z,101773.46
2018-09-14T19:12:37.414Z,101775.13
2018-09-14T19:16:02.419Z,101767.28
2018-09-14T19:19:27.701Z,101776.88
2018-09-14T19:22:53.770Z,101781.45
2018-09-14T19:26:19.844Z,101789.91
2018-09-14T19:29:45.215Z,101799.64
2018-09-14T19:33:10.740Z,101800.77
2018-09-14T19:36:35.911Z,101801.59
2018-09-14T19:40:00.937Z,101795.89
2018-09-14T19:43:26.403Z,101793.37
2018-09-14T19:46:52.660Z,101794.35
2018-09-14T19:50:18.207Z,101790.53
2018-09-14T19:53:44.240Z,101794.81
2018-09-14T19:57:09.331Z,101792.03
2018-09-14T20:00:34.292Z,101796.53
2018-09-14T20:03:59.275Z,101796.45
2018-09-14T20:07:24.378Z,101805.77
2018-09-14T20:10:50.100Z,101805.94
2018-09-14T20:14:15.713Z,101804.58
2018-09-14T20:17:41.918Z,101807.45
2018-09-14T20:21:06.698Z,101813.53
2018-09-14T20:24:31.960Z,101806.27
2018-09-14T20:27:57.317Z,101816.31
2018-09-14T20:31:22.028Z,101816.81
2018-09-14T20:34:47.229Z,101821.44
2018-09-14T20:38:12.131Z,101820.70
2018-09-14T20:41:37.561Z,101825.78
2018-09-14T20:45:03.557Z,101832.25
2018-09-14T20:48:29.601Z,101830.88
2018-09-14T20:51:54.900Z,101826.03
2018-09-14T20:55:20.483Z,101832.94
2018-09-14T20:58:45.336Z,101835.17
2018-09-14T21:02:09.949Z,101824.48
2018-09-14T21:05:34.658Z,101827.81
2018-09-14T21:08:59.179Z,101830.98
2018-09-14T21:12:23.737Z,101839.86
2018-09-14T21:15:48.134Z,101837.42
2018-09-14T21:19:12.519Z,101836.91
2018-09-14T21:22:38.043Z,101842.86
2018-09-14T21:26:02.480Z,101844.36
2018-09-14T21:29:26.885Z,101846.59
2018-09-14T21:32:51.296Z,101860.08
2018-09-14T21:36:15.739Z,101855.91
2018-09-14T21:39:40.152Z,101860.39
2018-09-14T21:43:04.561Z,101864.98
2018-09-14T21:46:28.952Z,101864.57
2018-09-14T21:49:53.392Z,101865.33
2018-09-14T21:53:17.809Z,101860.97
2018-09-14T21:56:42.239Z,101872.02
2018-09-14T22:00:12.553Z,101871.53
2018-09-14T22:03:36.973Z,101875.59
2018-09-14T22:07:01.425Z,101880.45
2018-09-14T22:10:25.834Z,101876.50
2018-09-14T22:13:51.221Z,101866.48
2018-09-14T22:17:15.661Z,101875.89
2018-09-14T22:20:40.046Z,101869.72
2018-09-14T22:24:04.459Z,101874.56
2018-09-14T22:27:28.845Z,101868.70
2018-09-14T22:30:53.247Z,101870.47
2018-09-14T22:34:17.681Z,101867.55
2018-09-14T22:37:42.115Z,101860.48
2018-09-14T22:41:06.539Z,101856.55
2018-09-14T22:44:31.008Z,101859.52
2018-09-14T22:47:55.413Z,101857.47
2018-09-14T22:51:19.871Z,101855.95
2018-09-14T22:54:44.268Z,101848.17
2018-09-14T22:58:08.744Z,101858.08
2018-09-14T23:01:33.113Z,101862.19
2018-09-14T23:04:57.538Z,101865.73
2018-09-14T23:08:21.948Z,101871.72
2018-09-14T23:11:46.423Z,101870.04
2018-09-14T23:15:10.858Z,101876.73
2018-09-14T23:18:35.345Z,101878.75
2018-09-14T23:21:59.772Z,101871.78
2018-09-14T23:25:24.159Z,101879.33
2018-09-14T23:28:48.661Z,101874.87
2018-09-14T23:32:13.039Z,101872.91
2018-09-14T23:35:37.520Z,101876.53
2018-09-14T23:39:01.889Z,101886.00
2018-09-14T23:42:26.321Z,101889.95
2018-09-14T23:45:50.728Z,101891.70
2018-09-14T23:49:15.175Z,101894.11
2018-09-14T23:52:39.616Z,101903.55
2018-09-14T23:56:04.359Z,101903.55
2018-09-14T23:59:28.798Z,101910.18
